CBP4 weather

Sechelt (St. Mary's Hospital) Heliport
Sechelt, British Columbia, Canada

Public forecast

Using degrees Celsius for public forecast. Weather courtesy of forecast.io.

METAR (pilot weather report)

Closest report is Nanaimo Airport, 25.7 nm (47.7 km) S. Retrieved 2019/07/21 03:00 UTC (28 minutes ago):

CYCD 210300Z 03004KT 30SM BKN250 22/09 A3001 RMK CI5 SLP163 DENSITY ALT 900FT

TAF (pilot weather forecast)

Forecast is more than 12 hours old.

Closest forecast is Nanaimo Airport, 25.7 nm (47.7 km) S. Retrieved 2019/07/20 00:00 UTC (1 day ago):

TAF CYCD 202338Z 2100/2104 36007KT P6SM FEW050 FEW260 BECMG 2102/2104 VRB03KT RMK NXT FCST WILL BE ISSUED AT 211445Z